SAARSAEZ

Guest
Details From SAAR - Rosario (Islas Malvinas)
To SAEZ - Ministro Pistarini (Ezeiza)
Flight Number -
Tags decoded
Created
Modified
Stats Distance 161 nm / 298 km
Max Altitude 0 ft / 0 m
Waypoints 2
Social Downloads 0
Likes 0
Share VATSIM

Download

Looking for another format? Having issues loading an existing format? Contact us
Advertisement - Login to hide

Notes

Requested: SAAR SUMU SAEZ

Route

SAAR SAEZ

ID Type Via Altitude Latitude Longitude Leg Dist Tot Dist Heading (true) Name
O SAAR APT - 0 ft / 0 m -32.90347˚ -60.78463˚ - 0 nm - Rosario (Islas Malvinas)
O SAEZ APT - 0 ft / 0 m -34.82138˚ -58.53273˚ 160 nm 160 nm 136° / 135° Ministro Pistarini (Ezeiza)

Altitude Profile

Advertisement - Login to hide

SAAR

Details ICAO SAAR (ROS)
Name Rosario (Islas Malvinas)
Region Argentina
Timezone America/Argentina/Cordoba (UTC-3.0)
Stats Elevation 85 ft / 26 m (AMSL)
Location -32.903472° -60.784635°
Runways 1
Magnetic Variation 7.918° W

METAR

SAAR 250000Z 05003KT CAVOK 10/07 Q1023

Decode

TAF

TAF SAAR 242300Z 2500/2524 05005KT CAVOK TX19/2518Z TN04/2510Z TEMPO 2505/2511 4000 BR

Decode

Departure Runways

ID Width Length Bearing (true) Bearing (mag) Surface Threshold Offset Overrun Length
02 148 ft / 45 m 9,878 ft / 3,011 m 10.78° 18.70° Concrete 0 ft / 0 m 128 ft / 39 m
20 148 ft / 45 m 9,878 ft / 3,011 m 190.78° 198.70° Concrete 0 ft / 0 m 0 ft / 0 m

SAEZ

Details ICAO SAEZ (EZE)
Name Ministro Pistarini (Ezeiza)
Region Argentina
Timezone America/Argentina/Buenos_Aires (UTC-3.0)
Stats Elevation 66 ft / 20 m (AMSL)
Location -34.821380° -58.532731°
Runways 2
Magnetic Variation 8.796° W

METAR

SAEZ 250000Z 02004KT CAVOK 14/10 Q1022 NOSIG

Decode

TAF

TAF SAEZ 242300Z 2500/2524 34005KT CAVOK TX19/2518Z TN08/2510Z BECMG 2512/2514 36010KT

Decode

Destination Runways

ID Width Length Bearing (true) Bearing (mag) Surface Threshold Offset Overrun Length
11 190 ft / 58 m 10,778 ft / 3,285 m 102.20° 111.00° Asphalt 0 ft / 0 m 0 ft / 0 m
17 151 ft / 46 m 9,153 ft / 2,790 m 163.98° 172.78° Asphalt 0 ft / 0 m 98 ft / 30 m
29 190 ft / 58 m 10,778 ft / 3,285 m 282.18° 290.98° Asphalt 0 ft / 0 m 115 ft / 35 m
35 151 ft / 46 m 9,153 ft / 2,790 m 343.98° 352.78° Asphalt 984 ft / 300 m 1,024 ft / 312 m

Approach Navaids

Runway Type Ident Frequency Range Bearing (true) Bearing (mag) Slope Elevation
11 Localiser PC 110.10 MHz 18 nm / 33 km 102.08° 110.87° - 66 ft / 20 m (AMSL)
11 Glidescope PC 110.10 MHz 10 nm / 19 km 102.28° 111.08° 3.00° 66 ft / 20 m (AMSL)
11 DME PC 110.10 MHz 18 nm / 33 km - - - 66 ft / 20 m (AMSL)
35 Localiser EZ 108.70 MHz 18 nm / 33 km 343.90° 352.70° - 66 ft / 20 m (AMSL)
35 Glidescope EZ 108.70 MHz 10 nm / 19 km 344.06° 352.86° 3.00° 66 ft / 20 m (AMSL)
35 DME EZ 108.70 MHz 18 nm / 33 km - - - 66 ft / 20 m (AMSL)

Popular Alternatives